createdAt,value
2017-12-03T00:00:31.722Z,99.99
2017-12-03T00:01:32.136Z,99.99
2017-12-03T00:02:32.556Z,99.99
2017-12-03T00:03:32.980Z,99.99
2017-12-03T00:04:33.396Z,99.99
2017-12-03T00:05:33.816Z,99.99
2017-12-03T00:06:34.232Z,99.99
2017-12-03T00:07:34.657Z,99.99
2017-12-03T00:08:35.072Z,99.99
2017-12-03T00:09:35.493Z,99.99
2017-12-03T00:10:35.915Z,99.99
2017-12-03T00:11:36.330Z,99.99
2017-12-03T00:12:36.749Z,99.99
2017-12-03T00:13:37.180Z,99.99
2017-12-03T00:14:37.591Z,99.99
2017-12-03T00:15:38.033Z,99.99
2017-12-03T00:16:38.432Z,99.99
2017-12-03T00:17:38.847Z,99.99
2017-12-03T00:18:39.266Z,99.99
2017-12-03T00:19:39.689Z,99.99
2017-12-03T00:20:40.107Z,99.99
2017-12-03T00:21:40.531Z,99.99
2017-12-03T00:22:40.946Z,99.99
2017-12-03T00:23:41.362Z,99.99
2017-12-03T00:24:41.784Z,99.99
2017-12-03T00:25:42.206Z,99.99
2017-12-03T00:26:42.621Z,99.99
2017-12-03T00:27:43.045Z,99.99
2017-12-03T00:28:43.462Z,99.99
2017-12-03T00:29:43.881Z,99.99
2017-12-03T00:30:44.299Z,99.99
2017-12-03T00:31:44.737Z,99.99
2017-12-03T00:32:45.144Z,99.99
2017-12-03T00:33:45.555Z,99.99
2017-12-03T00:34:45.978Z,99.99
2017-12-03T00:35:46.398Z,99.99
2017-12-03T00:36:46.820Z,99.99
2017-12-03T00:37:47.235Z,99.99
2017-12-03T00:38:47.652Z,99.99
2017-12-03T00:39:48.070Z,99.99
2017-12-03T00:40:48.490Z,99.99
2017-12-03T00:41:48.909Z,99.99
2017-12-03T00:42:49.328Z,99.99
2017-12-03T00:43:49.752Z,99.99
2017-12-03T00:44:50.178Z,99.99
2017-12-03T00:45:50.592Z,99.99
2017-12-03T00:46:51.006Z,99.99
2017-12-03T00:47:51.425Z,99.99
2017-12-03T00:48:51.849Z,99.99
2017-12-03T00:49:52.265Z,99.99
2017-12-03T00:50:52.688Z,99.99
2017-12-03T00:51:53.100Z,99.99
2017-12-03T00:52:53.544Z,99.99
2017-12-03T00:53:53.938Z,99.99
2017-12-03T00:54:54.356Z,99.99
2017-12-03T00:55:54.817Z,99.99
2017-12-03T00:56:55.199Z,99.99
2017-12-03T00:57:55.616Z,99.99
2017-12-03T00:58:56.035Z,99.99
2017-12-03T00:59:56.458Z,99.99
2017-12-03T01:00:56.871Z,99.99
2017-12-03T01:01:57.292Z,99.52
2017-12-03T01:02:57.708Z,99.52
2017-12-03T01:03:58.131Z,99.52
2017-12-03T01:04:58.556Z,99.52
2017-12-03T01:05:58.968Z,99.80
2017-12-03T01:06:59.384Z,99.90
2017-12-03T01:07:59.803Z,99.33
2017-12-03T01:09:00.221Z,99.62
2017-12-03T01:10:00.642Z,99.90
2017-12-03T01:11:01.066Z,99.62
2017-12-03T01:12:01.477Z,99.43
2017-12-03T01:13:01.899Z,99.33
2017-12-03T01:14:02.321Z,99.71
2017-12-03T01:15:02.738Z,99.62
2017-12-03T01:16:03.155Z,99.15
2017-12-03T01:17:03.572Z,98.96
2017-12-03T01:18:03.991Z,99.15
2017-12-03T01:19:04.410Z,98.96
2017-12-03T01:20:04.838Z,98.96
2017-12-03T01:21:05.249Z,98.48
2017-12-03T01:22:05.676Z,99.05
2017-12-03T01:23:06.088Z,98.39
2017-12-03T01:24:06.505Z,98.10
2017-12-03T01:25:06.942Z,98.20
2017-12-03T01:26:07.348Z,98.77
2017-12-03T01:27:07.761Z,98.86
2017-12-03T01:28:08.184Z,99.62
2017-12-03T01:29:08.604Z,99.90
2017-12-03T01:30:09.022Z,99.62
2017-12-03T01:31:09.438Z,99.15
2017-12-03T01:32:09.858Z,99.15
2017-12-03T01:33:10.275Z,98.58
2017-12-03T01:34:10.691Z,98.01
2017-12-03T01:35:11.110Z,98.01
2017-12-03T01:36:11.532Z,96.88
2017-12-03T01:37:11.959Z,97.25
2017-12-03T01:38:12.379Z,96.69
2017-12-03T01:39:12.792Z,96.31
2017-12-03T01:40:13.207Z,95.93
2017-12-03T01:41:13.629Z,96.50
2017-12-03T01:42:14.047Z,96.12
2017-12-03T01:43:14.466Z,96.21
2017-12-03T01:44:14.886Z,96.02
2017-12-03T01:45:15.298Z,96.12
2017-12-03T01:46:15.718Z,96.21
2017-12-03T01:47:16.135Z,96.31
2017-12-03T01:48:16.554Z,96.02
2017-12-03T01:49:16.971Z,95.17
2017-12-03T01:50:17.391Z,94.23
2017-12-03T01:51:17.809Z,93.66
2017-12-03T01:52:18.229Z,93.28
2017-12-03T01:53:18.648Z,92.61
2017-12-03T01:54:19.065Z,92.14
2017-12-03T01:55:19.492Z,92.80
2017-12-03T01:56:19.907Z,92.90
2017-12-03T01:57:20.324Z,93.09
2017-12-03T01:58:20.742Z,93.66
2017-12-03T01:59:21.169Z,93.56
2017-12-03T02:00:21.578Z,93.94
2017-12-03T02:01:21.998Z,94.32
2017-12-03T02:02:22.439Z,94.32
2017-12-03T02:03:22.835Z,94.32
2017-12-03T02:04:23.255Z,94.23
2017-12-03T02:05:23.672Z,94.42
2017-12-03T02:06:24.094Z,93.94
2017-12-03T02:07:24.507Z,94.32
2017-12-03T02:08:24.930Z,94.04
2017-12-03T02:09:25.357Z,93.75
2017-12-03T02:10:25.775Z,93.66
2017-12-03T02:11:26.189Z,93.47
2017-12-03T02:12:26.610Z,93.18
2017-12-03T02:13:27.025Z,93.09
2017-12-03T02:14:27.440Z,92.99
2017-12-03T02:15:27.860Z,93.09
2017-12-03T02:16:28.276Z,92.43
2017-12-03T02:17:28.695Z,92.24
2017-12-03T02:18:29.115Z,92.43
2017-12-03T02:19:29.532Z,92.10
2017-12-03T02:20:29.953Z,92.43
2017-12-03T02:21:30.371Z,92.24
2017-12-03T02:22:30.788Z,92.19
2017-12-03T02:23:31.207Z,92.14
2017-12-03T02:24:31.629Z,92.33
2017-12-03T02:25:32.054Z,92.43
2017-12-03T02:26:32.465Z,92.29
2017-12-03T02:27:32.884Z,92.61
2017-12-03T02:28:34.284Z,92.24
2017-12-03T02:29:33.707Z,92.38
2017-12-03T02:30:34.142Z,92.43
2017-12-03T02:31:34.556Z,92.38
2017-12-03T02:32:34.974Z,92.19
2017-12-03T02:33:35.393Z,92.43
2017-12-03T02:34:35.808Z,92.14
2017-12-03T02:35:36.229Z,91.81
2017-12-03T02:36:36.646Z,92.57
2017-12-03T02:37:37.067Z,92.38
2017-12-03T02:38:37.488Z,92.14
2017-12-03T02:39:37.903Z,92.47
2017-12-03T02:40:38.321Z,92.10
2017-12-03T02:41:38.738Z,92.24
2017-12-03T02:42:39.180Z,92.19
2017-12-03T02:43:39.579Z,92.19
2017-12-03T02:44:39.996Z,92.38
2017-12-03T02:45:40.414Z,92.38
2017-12-03T02:46:40.837Z,92.10
2017-12-03T02:47:41.251Z,92.19
2017-12-03T02:48:41.670Z,92.47
2017-12-03T02:49:42.087Z,92.38
2017-12-03T02:50:42.508Z,92.57
2017-12-03T02:51:42.925Z,91.72
2017-12-03T02:52:43.343Z,91.91
2017-12-03T02:53:43.759Z,91.72
2017-12-03T02:54:44.178Z,92.00
2017-12-03T02:55:44.614Z,91.81
2017-12-03T02:56:45.023Z,91.81
2017-12-03T02:57:45.434Z,90.96
2017-12-03T02:58:45.854Z,91.24
2017-12-03T02:59:46.270Z,90.86
2017-12-03T03:00:46.698Z,90.86
2017-12-03T03:01:47.112Z,90.77
2017-12-03T03:02:47.532Z,90.30
2017-12-03T03:03:47.950Z,89.73
2017-12-03T03:04:48.366Z,89.36
2017-12-03T03:05:48.780Z,88.88
2017-12-03T03:06:49.207Z,87.65
2017-12-03T03:07:49.619Z,87.08
2017-12-03T03:08:50.040Z,87.08
2017-12-03T03:09:50.459Z,87.37
2017-12-03T03:10:50.881Z,87.74
2017-12-03T03:11:51.292Z,87.37
2017-12-03T03:12:51.715Z,87.74
2017-12-03T03:13:52.131Z,87.74
2017-12-03T03:14:52.548Z,87.84
2017-12-03T03:15:52.970Z,87.65
2017-12-03T03:16:53.387Z,88.07
2017-12-03T03:17:53.807Z,87.93
2017-12-03T03:18:54.225Z,87.65
2017-12-03T03:19:54.641Z,87.84
2017-12-03T03:20:55.059Z,87.84
2017-12-03T03:21:55.480Z,87.41
2017-12-03T03:22:55.898Z,86.80
2017-12-03T03:23:56.313Z,87.04
2017-12-03T03:24:56.735Z,87.23
2017-12-03T03:25:57.153Z,86.37
2017-12-03T03:26:57.574Z,87.13
2017-12-03T03:27:57.992Z,87.04
2017-12-03T03:28:58.410Z,86.94
2017-12-03T03:29:58.827Z,87.51
2017-12-03T03:30:59.250Z,87.32
2017-12-03T03:31:59.664Z,88.07
2017-12-03T03:33:00.086Z,88.07
2017-12-03T03:34:00.502Z,88.83
2017-12-03T03:35:00.918Z,89.59
2017-12-03T03:36:01.338Z,89.40
2017-12-03T03:37:01.755Z,88.64
2017-12-03T03:38:02.173Z,88.74
2017-12-03T03:39:02.593Z,89.50
2017-12-03T03:40:03.011Z,89.21
2017-12-03T03:41:03.435Z,90.16
2017-12-03T03:42:03.856Z,90.25
2017-12-03T03:43:04.271Z,91.39
2017-12-03T03:44:04.688Z,91.86
2017-12-03T03:45:05.104Z,92.24
2017-12-03T03:46:05.524Z,92.71
2017-12-03T03:47:05.949Z,92.80
2017-12-03T03:48:06.374Z,93.18
2017-12-03T03:49:06.785Z,93.85
2017-12-03T03:50:07.202Z,94.23
2017-12-03T03:51:07.647Z,93.75
2017-12-03T03:52:08.037Z,93.75
2017-12-03T03:53:08.459Z,93.09
2017-12-03T03:54:08.874Z,93.09
2017-12-03T03:55:09.292Z,93.94
2017-12-03T03:56:09.714Z,93.66
2017-12-03T03:57:10.133Z,93.28
2017-12-03T03:58:10.548Z,93.18
2017-12-03T03:59:10.967Z,93.85
2017-12-03T04:00:11.384Z,94.51
2017-12-03T04:01:11.812Z,94.42
2017-12-03T04:02:12.236Z,94.70
2017-12-03T04:03:12.644Z,94.23
2017-12-03T04:04:13.062Z,93.94
2017-12-03T04:05:13.484Z,93.66
2017-12-03T04:06:13.895Z,92.71
2017-12-03T04:07:14.317Z,92.85
2017-12-03T04:08:14.737Z,92.14
2017-12-03T04:09:15.153Z,91.91
2017-12-03T04:10:15.569Z,91.72
2017-12-03T04:11:15.987Z,91.20
2017-12-03T04:12:16.408Z,90.63
2017-12-03T04:13:16.824Z,90.77
2017-12-03T04:14:17.242Z,89.31
2017-12-03T04:15:17.662Z,89.12
2017-12-03T04:16:18.080Z,89.31
2017-12-03T04:17:18.496Z,89.21
2017-12-03T04:18:18.916Z,89.59
2017-12-03T04:19:19.334Z,90.34
2017-12-03T04:20:19.753Z,90.53
2017-12-03T04:21:20.184Z,91.29
2017-12-03T04:22:20.592Z,91.20
2017-12-03T04:23:21.009Z,90.82
2017-12-03T04:24:21.427Z,90.63
2017-12-03T04:25:21.843Z,90.34
2017-12-03T04:26:22.270Z,90.39
2017-12-03T04:27:22.682Z,90.77
2017-12-03T04:28:23.103Z,90.58
2017-12-03T04:29:23.520Z,90.68
2017-12-03T04:30:23.935Z,90.30
2017-12-03T04:31:24.353Z,90.58
2017-12-03T04:32:24.769Z,90.30
2017-12-03T04:33:25.188Z,89.73
2017-12-03T04:34:25.609Z,89.54
2017-12-03T04:35:26.026Z,89.36
2017-12-03T04:36:26.441Z,89.54
2017-12-03T04:37:26.861Z,89.92
2017-12-03T04:38:27.280Z,89.64
2017-12-03T04:39:27.701Z,89.26
2017-12-03T04:40:28.125Z,89.36
2017-12-03T04:41:28.543Z,88.69
2017-12-03T04:42:28.953Z,87.84
2017-12-03T04:43:29.373Z,87.93
2017-12-03T04:44:29.791Z,88.03
2017-12-03T04:45:30.208Z,88.41
2017-12-03T04:46:30.624Z,88.88
2017-12-03T04:47:31.045Z,89.36
2017-12-03T04:48:31.461Z,88.79
2017-12-03T04:49:31.878Z,88.88
2017-12-03T04:50:32.295Z,87.93
2017-12-03T04:51:32.715Z,88.36
2017-12-03T04:52:33.131Z,88.69
2017-12-03T04:53:33.552Z,89.07
2017-12-03T04:54:33.967Z,89.54
2017-12-03T04:55:34.386Z,90.11
2017-12-03T04:56:34.804Z,89.45
2017-12-03T04:57:35.223Z,89.64
2017-12-03T04:58:35.640Z,89.26
2017-12-03T04:59:36.059Z,89.17
2017-12-03T05:00:36.475Z,88.41
2017-12-03T05:01:36.900Z,88.88
2017-12-03T05:02:37.318Z,88.31
2017-12-03T05:03:37.731Z,88.03
2017-12-03T05:04:38.147Z,87.74
2017-12-03T05:05:38.569Z,87.84
2017-12-03T05:06:38.987Z,86.90
2017-12-03T05:07:39.407Z,86.71
2017-12-03T05:08:39.818Z,86.80
2017-12-03T05:09:40.236Z,86.52
2017-12-03T05:10:40.661Z,85.95
2017-12-03T05:11:41.073Z,85.38
2017-12-03T05:12:41.490Z,85.76
2017-12-03T05:13:41.911Z,85.38
2017-12-03T05:14:42.327Z,85.19
2017-12-03T05:15:42.748Z,84.91
2017-12-03T05:16:43.162Z,84.81
2017-12-03T05:17:43.582Z,84.91
2017-12-03T05:18:43.999Z,85.10
2017-12-03T05:19:44.420Z,84.53
2017-12-03T05:20:44.832Z,84.77
2017-12-03T05:21:45.253Z,85.05
2017-12-03T05:22:45.670Z,84.95
2017-12-03T05:23:46.090Z,84.67
2017-12-03T05:24:46.509Z,85.14
2017-12-03T05:25:46.936Z,84.77
2017-12-03T05:26:47.349Z,85.24
2017-12-03T05:27:47.764Z,85.80
2017-12-03T05:28:48.190Z,86.94
2017-12-03T05:29:48.600Z,86.94
2017-12-03T05:30:49.017Z,87.70
2017-12-03T05:31:49.434Z,87.70
2017-12-03T05:32:49.849Z,88.17
2017-12-03T05:33:50.266Z,88.45
2017-12-03T05:34:50.687Z,88.17
2017-12-03T05:35:51.107Z,89.12
2017-12-03T05:36:51.521Z,89.69
2017-12-03T05:37:52.297Z,90.44
2017-12-03T05:38:52.590Z,90.34
2017-12-03T05:39:52.984Z,91.39
2017-12-03T05:40:53.385Z,91.67
2017-12-03T05:41:53.826Z,92.14
2017-12-03T05:42:54.233Z,92.33
2017-12-03T05:43:54.656Z,92.43
2017-12-03T05:44:55.042Z,93.28
2017-12-03T05:45:55.536Z,93.94
2017-12-03T05:46:55.695Z,94.13
2017-12-03T05:47:56.143Z,94.23
2017-12-03T05:48:56.544Z,94.70
2017-12-03T05:49:56.970Z,95.36
2017-12-03T05:50:57.392Z,95.64
2017-12-03T05:51:57.804Z,95.74
2017-12-03T05:52:58.238Z,96.31
2017-12-03T05:53:58.642Z,96.31
2017-12-03T05:54:59.051Z,97.06
2017-12-03T05:55:59.471Z,97.16
2017-12-03T05:56:59.888Z,98.10
2017-12-03T05:58:00.314Z,97.91
2017-12-03T05:59:00.730Z,97.91
2017-12-03T06:00:01.147Z,97.44
2017-12-03T06:01:01.565Z,97.25
2017-12-03T06:02:01.983Z,97.25
2017-12-03T06:03:02.404Z,98.20
2017-12-03T06:04:02.822Z,98.01
2017-12-03T06:05:03.241Z,98.10
2017-12-03T06:06:03.660Z,97.82
2017-12-03T06:07:04.074Z,98.20
2017-12-03T06:08:04.496Z,99.05
2017-12-03T06:09:04.915Z,98.86
2017-12-03T06:10:05.331Z,99.24
2017-12-03T06:11:05.761Z,98.86
2017-12-03T06:12:06.171Z,99.05
2017-12-03T06:13:06.611Z,98.96
2017-12-03T06:14:07.010Z,98.96
2017-12-03T06:15:07.430Z,98.77
2017-12-03T06:16:07.846Z,98.39
2017-12-03T06:17:08.263Z,98.86
2017-12-03T06:18:08.691Z,98.96
2017-12-03T06:19:09.105Z,98.58
2017-12-03T06:20:09.520Z,98.96
2017-12-03T06:21:09.936Z,99.43
2017-12-03T06:22:10.355Z,98.96
2017-12-03T06:23:10.772Z,98.77
2017-12-03T06:24:11.194Z,98.77
2017-12-03T06:25:11.618Z,98.77
2017-12-03T06:26:12.034Z,98.58
2017-12-03T06:27:12.448Z,99.05
2017-12-03T06:28:12.864Z,99.24
2017-12-03T06:29:13.282Z,98.96
2017-12-03T06:30:13.702Z,98.67
2017-12-03T06:31:14.124Z,98.10
2017-12-03T06:32:14.540Z,99.33
2017-12-03T06:33:14.955Z,98.67
2017-12-03T06:34:15.378Z,98.29
2017-12-03T06:35:15.802Z,98.67
2017-12-03T06:36:16.219Z,98.77
2017-12-03T06:37:16.635Z,98.86
2017-12-03T06:38:17.052Z,99.24
2017-12-03T06:39:17.472Z,98.86
2017-12-03T06:40:17.895Z,98.86
2017-12-03T06:41:18.305Z,99.15
2017-12-03T06:42:18.727Z,99.24
2017-12-03T06:43:19.147Z,99.24
2017-12-03T06:44:19.562Z,98.67
2017-12-03T06:45:19.980Z,98.67
2017-12-03T06:46:20.399Z,98.96
2017-12-03T06:47:20.815Z,99.62
2017-12-03T06:48:21.234Z,99.62
2017-12-03T06:49:21.651Z,99.43
2017-12-03T06:50:22.072Z,99.62
2017-12-03T06:51:22.493Z,99.62
2017-12-03T06:52:22.936Z,99.71
2017-12-03T06:53:23.326Z,99.71
2017-12-03T06:54:23.746Z,99.99
2017-12-03T06:55:24.165Z,99.52
2017-12-03T06:56:24.580Z,99.52
2017-12-03T06:57:25.000Z,99.43
2017-12-03T06:58:25.416Z,98.96
2017-12-03T06:59:25.839Z,99.62
2017-12-03T07:00:26.259Z,99.80
2017-12-03T07:01:26.684Z,99.62
2017-12-03T07:02:27.090Z,99.52
2017-12-03T07:03:27.510Z,99.99
2017-12-03T07:04:27.927Z,99.99
2017-12-03T07:05:28.344Z,99.99
2017-12-03T07:06:28.761Z,99.99
2017-12-03T07:07:29.178Z,99.99
2017-12-03T07:08:29.599Z,99.99
2017-12-03T07:09:30.017Z,99.99
2017-12-03T07:10:30.437Z,99.99
2017-12-03T07:11:30.853Z,99.99
2017-12-03T07:12:31.276Z,99.99
2017-12-03T07:13:31.693Z,99.99
2017-12-03T07:14:32.106Z,99.99
2017-12-03T07:15:32.525Z,99.99
2017-12-03T07:16:32.947Z,99.99
2017-12-03T07:17:33.364Z,99.99
2017-12-03T07:18:33.782Z,99.99
2017-12-03T07:19:34.202Z,99.99
2017-12-03T07:20:34.621Z,99.99
2017-12-03T07:21:35.035Z,99.99
2017-12-03T07:22:35.452Z,99.99
2017-12-03T07:23:35.869Z,99.99
2017-12-03T07:24:36.287Z,99.99
2017-12-03T07:25:36.705Z,99.99
2017-12-03T07:26:37.123Z,99.99
2017-12-03T07:27:37.541Z,99.99
2017-12-03T07:28:37.963Z,99.99
2017-12-03T07:29:38.378Z,99.99
2017-12-03T07:30:38.798Z,99.99
2017-12-03T07:31:39.223Z,99.99
2017-12-03T07:32:39.633Z,99.99
2017-12-03T07:33:40.049Z,99.38
2017-12-03T07:34:40.473Z,99.99
2017-12-03T07:35:40.892Z,99.99
2017-12-03T07:36:41.305Z,99.99
2017-12-03T07:37:41.736Z,99.99
2017-12-03T07:38:42.150Z,99.99
2017-12-03T07:39:42.558Z,99.99
2017-12-03T07:40:42.979Z,99.99
2017-12-03T07:41:43.398Z,99.99
2017-12-03T07:42:43.816Z,99.99
2017-12-03T07:43:44.234Z,99.99
2017-12-03T07:44:44.652Z,99.99
2017-12-03T07:45:45.070Z,99.99
2017-12-03T07:46:45.487Z,99.99
2017-12-03T07:47:45.914Z,99.99
2017-12-03T07:48:46.325Z,99.99
2017-12-03T07:49:46.743Z,99.99
2017-12-03T07:50:47.164Z,99.99
2017-12-03T07:51:47.586Z,99.99
2017-12-03T07:52:48.873Z,99.99
2017-12-03T07:53:48.418Z,99.99
2017-12-03T07:54:48.835Z,99.99
2017-12-03T07:55:49.258Z,99.99
2017-12-03T07:56:49.675Z,99.99
2017-12-03T07:57:50.091Z,99.99
2017-12-03T07:58:50.509Z,99.99
2017-12-03T07:59:50.931Z,99.99
2017-12-03T08:00:51.348Z,99.99
2017-12-03T08:01:51.764Z,99.99
2017-12-03T08:02:52.186Z,99.99
2017-12-03T08:03:52.602Z,99.99
2017-12-03T08:04:53.018Z,99.99
2017-12-03T08:05:53.438Z,99.99
2017-12-03T08:06:53.854Z,99.99
2017-12-03T08:07:54.277Z,99.99
2017-12-03T08:08:54.698Z,99.99
2017-12-03T08:09:55.111Z,99.99
2017-12-03T08:10:55.533Z,99.99
2017-12-03T08:11:55.949Z,99.99
2017-12-03T08:12:56.367Z,99.99
2017-12-03T08:13:56.782Z,99.99
2017-12-03T08:14:57.203Z,99.99
2017-12-03T08:15:57.619Z,99.99
2017-12-03T08:16:58.036Z,99.99
2017-12-03T08:17:58.455Z,99.99
2017-12-03T08:18:58.871Z,99.99
2017-12-03T08:19:59.290Z,99.99
2017-12-03T08:20:59.711Z,99.99
2017-12-03T08:22:00.126Z,99.99
2017-12-03T08:23:00.544Z,99.99
2017-12-03T08:24:00.972Z,99.99
2017-12-03T08:25:01.394Z,99.99
2017-12-03T08:26:01.803Z,99.99
2017-12-03T08:27:02.221Z,99.99
2017-12-03T08:28:02.653Z,99.99
2017-12-03T08:29:03.055Z,99.99
2017-12-03T08:30:03.470Z,99.99
2017-12-03T08:31:03.888Z,99.99
2017-12-03T08:32:04.309Z,99.99
2017-12-03T08:33:04.726Z,99.99
2017-12-03T08:34:05.144Z,99.99
2017-12-03T08:35:05.561Z,99.99
2017-12-03T08:36:05.981Z,99.99
2017-12-03T08:37:06.402Z,99.99
2017-12-03T08:38:06.816Z,99.99
2017-12-03T08:39:07.235Z,99.99
2017-12-03T08:40:07.653Z,99.99
2017-12-03T08:41:08.076Z,99.99
2017-12-03T08:42:08.493Z,99.99
2017-12-03T08:43:08.907Z,99.99
2017-12-03T08:44:09.326Z,99.99
2017-12-03T08:45:09.750Z,99.99
2017-12-03T08:46:10.172Z,99.99
2017-12-03T08:47:10.583Z,99.99
2017-12-03T08:48:10.999Z,99.99
2017-12-03T08:49:11.422Z,99.99
2017-12-03T08:50:11.834Z,99.99
2017-12-03T08:51:12.254Z,99.99
2017-12-03T08:52:12.671Z,99.99
2017-12-03T08:53:13.090Z,99.99
2017-12-03T08:54:13.509Z,99.99
2017-12-03T08:55:13.928Z,99.99
2017-12-03T08:56:14.351Z,99.99
2017-12-03T08:57:14.765Z,99.99
2017-12-03T08:58:15.186Z,99.99
2017-12-03T08:59:15.600Z,99.99
2017-12-03T09:00:16.025Z,99.99
2017-12-03T09:01:16.441Z,99.99
2017-12-03T09:02:16.855Z,99.99
2017-12-03T09:03:17.286Z,99.99
2017-12-03T09:04:17.695Z,99.99
2017-12-03T09:05:18.115Z,99.99
2017-12-03T09:06:18.533Z,99.99
2017-12-03T09:07:18.950Z,99.99
2017-12-03T09:08:19.369Z,99.99
2017-12-03T09:09:19.786Z,99.99
2017-12-03T09:10:20.204Z,99.99
2017-12-03T09:11:20.624Z,99.99
2017-12-03T09:12:21.043Z,99.99
2017-12-03T09:13:21.462Z,99.99
2017-12-03T09:14:21.893Z,99.99
2017-12-03T09:15:22.303Z,99.99
2017-12-03T09:16:22.719Z,99.99
2017-12-03T09:17:23.139Z,99.99
2017-12-03T09:18:23.606Z,99.99
2017-12-03T09:19:23.971Z,99.99
2017-12-03T09:20:24.394Z,99.99
2017-12-03T09:21:24.813Z,99.99
2017-12-03T09:22:25.236Z,99.99
2017-12-03T09:23:25.685Z,99.99
2017-12-03T09:24:26.079Z,99.99
2017-12-03T09:25:26.491Z,99.99
2017-12-03T09:26:26.906Z,99.99
2017-12-03T09:27:27.325Z,99.99
2017-12-03T09:28:27.749Z,99.99
2017-12-03T09:29:28.172Z,99.99
2017-12-03T09:30:28.586Z,99.99
2017-12-03T09:31:29.003Z,99.99
2017-12-03T09:32:29.433Z,99.99
2017-12-03T09:33:29.841Z,99.99
2017-12-03T09:34:30.258Z,99.99
2017-12-03T09:35:30.678Z,99.99
2017-12-03T09:36:31.096Z,99.99
2017-12-03T09:37:31.519Z,99.99
2017-12-03T09:38:31.937Z,99.99
2017-12-03T09:39:32.358Z,99.99
2017-12-03T09:40:32.778Z,99.99
2017-12-03T09:41:33.194Z,99.99
2017-12-03T09:42:33.615Z,99.99
2017-12-03T09:43:34.035Z,99.99
2017-12-03T09:44:34.451Z,99.99
2017-12-03T09:45:34.902Z,99.99
2017-12-03T09:46:35.299Z,99.99
2017-12-03T09:47:35.714Z,99.99
2017-12-03T09:48:36.132Z,99.99
2017-12-03T09:49:36.556Z,99.99
2017-12-03T09:50:36.974Z,99.99
2017-12-03T09:51:37.398Z,99.99
2017-12-03T09:52:37.818Z,99.99
2017-12-03T09:53:38.240Z,99.39
2017-12-03T09:54:38.661Z,99.11
2017-12-03T09:55:39.112Z,98.35
2017-12-03T09:56:39.510Z,98.21
2017-12-03T09:57:39.937Z,98.16
2017-12-03T09:58:40.360Z,94.79
2017-12-03T09:59:40.781Z,94.93
2017-12-03T10:00:41.212Z,93.94
2017-12-03T10:01:41.636Z,94.13
2017-12-03T10:02:42.059Z,93.79
2017-12-03T10:03:42.492Z,90.99
2017-12-03T10:04:42.914Z,89.04
2017-12-03T10:05:43.339Z,88.53
2017-12-03T10:06:43.765Z,88.90
2017-12-03T10:07:44.194Z,88.71
2017-12-03T10:08:45.392Z,88.48
2017-12-03T10:09:45.047Z,90.85
2017-12-03T10:10:45.475Z,90.80
2017-12-03T10:11:45.904Z,92.47
2017-12-03T10:12:46.334Z,95.36
2017-12-03T10:13:46.757Z,96.98
2017-12-03T10:14:47.185Z,91.38
2017-12-03T10:15:47.618Z,90.75
2017-12-03T10:16:48.049Z,87.34
2017-12-03T10:17:48.471Z,86.47
2017-12-03T10:18:48.902Z,87.66
2017-12-03T10:19:49.334Z,85.62
2017-12-03T10:20:49.761Z,85.24
2017-12-03T10:21:50.193Z,85.72
2017-12-03T10:22:50.615Z,87.67
2017-12-03T10:23:51.049Z,87.01
2017-12-03T10:24:51.483Z,86.76
2017-12-03T10:25:51.901Z,84.39
2017-12-03T10:26:52.333Z,83.76
2017-12-03T10:27:52.758Z,83.00
2017-12-03T10:28:53.189Z,81.77
2017-12-03T10:29:53.623Z,80.96
2017-12-03T10:30:54.048Z,83.78
2017-12-03T10:31:54.485Z,89.10
2017-12-03T10:32:54.907Z,91.52
2017-12-03T10:33:55.335Z,91.56
2017-12-03T10:34:55.767Z,91.14
2017-12-03T10:35:56.195Z,89.00
2017-12-03T10:36:56.625Z,87.52
2017-12-03T10:37:57.062Z,85.34
2017-12-03T10:38:57.485Z,84.77
2017-12-03T10:39:57.922Z,83.76
2017-12-03T10:40:58.345Z,82.57
2017-12-03T10:41:58.773Z,79.91
2017-12-03T10:42:59.204Z,79.91
2017-12-03T10:43:59.631Z,79.72
2017-12-03T10:45:00.064Z,79.58
2017-12-03T10:46:00.491Z,79.91
2017-12-03T10:47:00.922Z,79.96
2017-12-03T10:48:01.349Z,81.25
2017-12-03T10:49:01.783Z,82.49
2017-12-03T10:50:02.209Z,82.77
2017-12-03T10:51:02.640Z,82.62
2017-12-03T10:52:03.066Z,81.38
2017-12-03T10:53:03.502Z,79.96
2017-12-03T10:54:03.926Z,80.86
2017-12-03T10:55:04.357Z,79.72
2017-12-03T10:56:04.785Z,78.71
2017-12-03T10:57:05.216Z,76.10
2017-12-03T10:58:05.652Z,76.97
2017-12-03T10:59:06.073Z,80.64
2017-12-03T11:00:06.505Z,81.77
2017-12-03T11:01:06.936Z,81.12
2017-12-03T11:02:07.365Z,82.96
2017-12-03T11:03:07.801Z,80.91
2017-12-03T11:04:08.225Z,82.54
2017-12-03T11:05:08.656Z,81.87
2017-12-03T11:06:09.087Z,82.43
2017-12-03T11:07:09.515Z,82.00
2017-12-03T11:08:09.952Z,80.13
2017-12-03T11:09:10.375Z,77.47
2017-12-03T11:10:10.820Z,75.53
2017-12-03T11:11:11.237Z,76.76
2017-12-03T11:12:11.668Z,77.72
2017-12-03T11:13:12.104Z,77.68
2017-12-03T11:14:12.528Z,78.72
2017-12-03T11:15:12.960Z,78.88
2017-12-03T11:16:13.390Z,80.44
2017-12-03T11:17:13.821Z,79.14
2017-12-03T11:18:14.256Z,78.97
2017-12-03T11:19:14.681Z,79.83
2017-12-03T11:20:15.115Z,80.58
2017-12-03T11:21:15.545Z,81.77
2017-12-03T11:22:15.987Z,80.44
2017-12-03T11:23:16.405Z,80.63
2017-12-03T11:24:16.834Z,80.49
2017-12-03T11:25:17.267Z,80.34
2017-12-03T11:26:17.704Z,80.44
2017-12-03T11:27:18.134Z,80.16
2017-12-03T11:28:18.555Z,81.87
2017-12-03T11:29:18.990Z,83.92
2017-12-03T11:30:19.418Z,86.30
2017-12-03T11:31:19.846Z,86.39
2017-12-03T11:32:20.279Z,86.58
2017-12-03T11:33:20.706Z,87.63
2017-12-03T11:34:21.132Z,90.05
2017-12-03T11:35:21.566Z,89.29
2017-12-03T11:36:21.988Z,88.58
2017-12-03T11:37:22.423Z,91.52
2017-12-03T11:38:22.848Z,92.76
2017-12-03T11:39:23.273Z,93.41
2017-12-03T11:40:23.748Z,94.46
2017-12-03T11:41:24.138Z,96.31
2017-12-03T11:42:24.554Z,97.35
2017-12-03T11:43:24.981Z,97.64
2017-12-03T11:44:25.405Z,98.87
2017-12-03T11:45:25.831Z,99.99
2017-12-03T11:46:26.288Z,99.99
2017-12-03T11:47:26.683Z,99.99
2017-12-03T11:48:27.103Z,99.91
2017-12-03T11:49:27.530Z,99.99
2017-12-03T11:50:27.953Z,99.99
2017-12-03T11:51:28.380Z,99.34
2017-12-03T11:52:28.805Z,99.63
2017-12-03T11:53:29.227Z,99.99
2017-12-03T11:54:29.652Z,99.99
2017-12-03T11:55:30.074Z,99.99
2017-12-03T11:56:30.503Z,99.99
2017-12-03T11:57:30.923Z,99.99
2017-12-03T11:58:31.345Z,99.99
2017-12-03T11:59:31.765Z,99.99
2017-12-03T12:00:32.209Z,99.99
2017-12-03T12:01:32.636Z,99.99
2017-12-03T12:02:33.038Z,99.99
2017-12-03T12:03:33.457Z,99.99
2017-12-03T12:04:33.878Z,99.99
2017-12-03T12:05:34.300Z,99.99
2017-12-03T12:06:34.722Z,99.99
2017-12-03T12:07:35.143Z,99.99
2017-12-03T12:08:35.568Z,99.99
2017-12-03T12:09:36.131Z,99.99
2017-12-03T12:10:36.407Z,99.99
2017-12-03T12:11:36.832Z,99.99
2017-12-03T12:12:37.252Z,99.99
2017-12-03T12:13:37.674Z,99.99
2017-12-03T12:14:38.098Z,99.99
2017-12-03T12:15:38.522Z,99.99
2017-12-03T12:16:38.950Z,99.99
2017-12-03T12:17:39.363Z,99.99
2017-12-03T12:18:39.781Z,99.99
2017-12-03T12:19:40.201Z,99.99
2017-12-03T12:20:40.624Z,99.99
2017-12-03T12:21:41.050Z,99.99
2017-12-03T12:22:41.467Z,99.99
2017-12-03T12:23:41.891Z,99.99
2017-12-03T12:24:42.310Z,99.99
2017-12-03T12:25:42.731Z,99.99
2017-12-03T12:26:43.158Z,99.99
2017-12-03T12:27:43.571Z,99.99
2017-12-03T12:28:43.995Z,99.99
2017-12-03T12:29:44.418Z,99.99
2017-12-03T12:30:44.838Z,99.99
2017-12-03T12:31:45.259Z,99.99
2017-12-03T12:32:45.681Z,99.99
2017-12-03T12:33:46.100Z,99.99
2017-12-03T12:34:46.534Z,99.99
2017-12-03T12:35:46.947Z,99.99
2017-12-03T12:36:47.365Z,99.99
2017-12-03T12:37:47.784Z,99.99
2017-12-03T12:38:48.209Z,99.99
2017-12-03T12:39:48.627Z,99.99
2017-12-03T12:40:49.046Z,99.99
2017-12-03T12:41:49.472Z,99.99
2017-12-03T12:42:49.888Z,99.99
2017-12-03T12:43:50.311Z,99.99
2017-12-03T12:44:50.736Z,99.99
2017-12-03T12:45:51.150Z,99.99
2017-12-03T12:46:51.579Z,99.99
2017-12-03T12:47:51.991Z,99.99
2017-12-03T12:48:52.414Z,99.99
2017-12-03T12:49:52.832Z,99.99
2017-12-03T12:50:53.261Z,99.99
2017-12-03T12:51:53.676Z,99.99
2017-12-03T12:52:54.099Z,99.99
2017-12-03T12:53:54.520Z,99.99
2017-12-03T12:54:54.939Z,99.99
2017-12-03T12:55:55.361Z,99.99
2017-12-03T12:56:55.783Z,99.99
2017-12-03T12:57:56.203Z,99.99